Time;durP1;ratioP1;P1;durP2;ratioP2;P2;SDS_P1;SDS_P2;PMS_P1;PMS_P2;Temp;Humidity;BMP_temperature;BMP_pressure;BME280_temperature;BME280_humidity;BME280_pressure;Samples;Min_cycle;Max_cycle;Signal;HPM_P1;HPM_P2
2022/01/22 00:01:52;;;;;;;12.70;2.80;;;8.10;79.60;;;;;;5077945;28;20039;-62
2022/01/22 00:04:18;;;;;;;10.88;3.10;;;8.10;79.70;;;;;;5085347;28;20509;-62
2022/01/22 00:06:43;;;;;;;11.82;2.78;;;8.10;79.80;;;;;;5098040;28;20096;-63
2022/01/22 00:09:09;;;;;;;8.45;2.50;;;8.10;79.90;;;;;;5096710;28;20024;-64
2022/01/22 00:11:39;;;;;;;9.43;2.85;;;8.10;79.90;;;;;;5078181;28;20036;-63
2022/01/22 00:14:23;;;;;;;8.68;2.60;;;8.10;79.90;;;;;;5092328;28;20208;-63
2022/01/22 00:16:54;;;;;;;9.10;3.00;;;8.10;79.90;;;;;;5077334;28;20024;-63
2022/01/22 00:19:20;;;;;;;10.88;3.38;;;8.10;79.90;;;;;;5079229;28;20033;-63
2022/01/22 00:21:46;;;;;;;14.10;3.42;;;8.10;79.90;;;;;;5096105;28;20032;-62
2022/01/22 00:24:13;;;;;;;12.35;3.25;;;8.10;79.90;;;;;;5096332;28;20039;-63
2022/01/22 00:26:40;;;;;;;10.88;3.20;;;8.10;79.90;;;;;;5097045;28;20027;-63
2022/01/22 00:29:05;;;;;;;13.48;3.35;;;8.10;79.90;;;;;;5093818;28;20032;-63
2022/01/22 00:31:31;;;;;;;7.38;2.60;;;8.10;79.90;;;;;;5097601;28;20039;-63
2022/01/22 00:33:56;;;;;;;14.48;3.65;;;8.10;80.00;;;;;;5096903;28;20081;-62
2022/01/22 00:36:22;;;;;;;13.10;3.30;;;8.10;80.00;;;;;;5097225;28;20032;-62
2022/01/22 00:38:48;;;;;;;8.73;3.03;;;8.10;80.00;;;;;;5096038;28;20028;-62
2022/01/22 00:41:13;;;;;;;10.15;2.97;;;8.10;80.00;;;;;;5096001;28;20035;-62
2022/01/22 00:43:39;;;;;;;10.75;2.90;;;8.10;80.00;;;;;;5095460;28;20028;-62
2022/01/22 00:46:05;;;;;;;9.45;2.78;;;8.10;80.10;;;;;;5096483;28;20387;-63
2022/01/22 00:48:30;;;;;;;9.60;3.35;;;8.10;80.00;;;;;;5095790;28;20028;-62
2022/01/22 00:50:57;;;;;;;9.55;2.60;;;8.10;80.10;;;;;;5094905;28;20036;-63
2022/01/22 00:53:24;;;;;;;8.18;2.88;;;8.10;80.10;;;;;;5096473;28;20020;-63
2022/01/22 00:55:50;;;;;;;8.02;3.10;;;8.10;80.20;;;;;;5095192;28;20452;-63
2022/01/22 00:58:15;;;;;;;10.87;3.37;;;8.10;80.20;;;;;;5095640;28;20038;-62
2022/01/22 01:00:41;;;;;;;9.05;3.13;;;8.20;80.30;;;;;;5094640;28;20028;-63
2022/01/22 01:03:07;;;;;;;9.75;3.00;;;8.10;80.30;;;;;;5095772;28;20024;-63
2022/01/22 01:05:34;;;;;;;8.97;3.00;;;8.10;80.30;;;;;;5095787;28;20085;-63
2022/01/22 01:08:00;;;;;;;8.13;2.67;;;8.10;80.40;;;;;;5096458;28;20081;-62
2022/01/22 01:10:26;;;;;;;15.80;3.63;;;8.10;80.50;;;;;;5087449;28;20154;-63
2022/01/22 01:12:52;;;;;;;10.18;3.03;;;8.10;80.50;;;;;;5096176;28;20036;-63
2022/01/22 01:34:25;;;;;;;9.25;3.05;;;8.10;80.70;;;;;;5014598;28;20450;-63
2022/01/22 01:36:51;;;;;;;7.38;2.65;;;8.10;80.70;;;;;;5003304;28;20498;-63
2022/01/22 01:39:23;;;;;;;12.07;3.35;;;8.20;80.70;;;;;;4999727;28;20029;-63
2022/01/22 01:42:04;;;;;;;9.83;3.50;;;8.20;80.80;;;;;;4997475;28;20030;-63
2022/01/22 01:44:30;;;;;;;12.10;3.55;;;8.20;80.80;;;;;;4997972;28;20153;-63
2022/01/22 01:47:08;;;;;;;9.40;3.10;;;8.10;80.80;;;;;;5011561;28;20441;-63
2022/01/22 01:49:34;;;;;;;9.30;3.10;;;8.20;80.90;;;;;;5006745;28;20026;-62
2022/01/22 01:52:07;;;;;;;11.23;4.60;;;8.10;80.90;;;;;;5003705;28;20108;-62
2022/01/22 01:54:45;;;;;;;8.40;3.40;;;8.20;81.00;;;;;;5014141;28;20041;-63
2022/01/22 01:59:56;;;;;;;11.93;3.53;;;8.10;81.00;;;;;;5083096;28;20453;-63
2022/01/22 02:02:42;;;;;;;7.38;3.10;;;8.10;81.10;;;;;;5094473;28;20123;-63
2022/01/22 02:05:11;;;;;;;8.40;3.53;;;8.10;81.10;;;;;;5094845;28;20126;-63
2022/01/22 02:07:39;;;;;;;11.20;3.80;;;8.10;81.10;;;;;;5093854;28;20024;-63
2022/01/22 02:10:15;;;;;;;8.98;3.20;;;8.10;81.10;;;;;;5094183;28;20051;-63
2022/01/22 02:23:43;;;;;;;11.38;4.07;;;8.20;81.40;;;;;;5093933;28;20028;-63
2022/01/22 02:26:10;;;;;;;12.25;3.60;;;8.10;81.30;;;;;;5093885;28;20036;-63
2022/01/22 02:28:47;;;;;;;12.93;3.90;;;8.10;81.40;;;;;;5093553;28;20429;-63
2022/01/22 02:31:21;;;;;;;11.40;4.10;;;8.10;81.40;;;;;;5093731;28;20040;-63
2022/01/22 02:34:03;;;;;;;10.85;4.05;;;8.10;81.40;;;;;;5094343;28;20079;-63
2022/01/22 02:36:41;;;;;;;10.32;4.28;;;8.20;81.50;;;;;;5110770;28;20110;-63
2022/01/22 02:39:13;;;;;;;10.32;3.70;;;8.20;81.50;;;;;;5073933;28;20024;-62
2022/01/22 02:41:47;;;;;;;14.65;4.60;;;8.20;81.50;;;;;;5094720;28;20070;-62
2022/01/22 02:44:43;;;;;;;9.23;3.60;;;8.20;81.60;;;;;;5090705;28;20028;-62
2022/01/22 02:47:07;;;;;;;10.77;3.88;;;8.20;81.60;;;;;;5093307;28;20375;-63
2022/01/22 02:49:33;;;;;;;9.95;4.05;;;8.20;81.70;;;;;;5093093;28;20464;-63
2022/01/22 02:52:05;;;;;;;8.05;3.95;;;8.20;81.70;;;;;;5093994;28;20036;-63
2022/01/22 02:54:31;;;;;;;18.08;4.00;;;8.20;81.70;;;;;;5094946;28;20112;-63
2022/01/22 02:56:57;;;;;;;9.75;3.92;;;8.20;81.60;;;;;;5093540;28;20110;-62
2022/01/22 02:59:23;;;;;;;11.23;4.13;;;8.20;81.60;;;;;;5093417;28;20058;-63
2022/01/22 03:01:52;;;;;;;10.20;4.00;;;8.20;81.60;;;;;;5094033;28;20032;-63
2022/01/22 03:04:18;;;;;;;11.00;4.33;;;8.20;81.60;;;;;;5093589;28;20024;-63
2022/01/22 03:06:44;;;;;;;13.63;3.90;;;8.20;81.60;;;;;;5093250;28;20050;-62
2022/01/22 03:09:13;;;;;;;11.98;4.60;;;8.20;81.60;;;;;;5094249;28;20444;-63
2022/01/22 03:27:48;;;;;;;18.92;4.35;;;8.20;81.60;;;;;;5094215;28;20048;-63
2022/01/22 03:30:14;;;;;;;11.90;5.22;;;8.30;81.70;;;;;;5092986;28;20032;-62
2022/01/22 03:32:46;;;;;;;8.50;3.67;;;8.20;81.60;;;;;;5109989;28;20081;-62
2022/01/22 03:37:51;;;;;;;11.37;4.23;;;8.30;81.70;;;;;;5093225;28;20119;-62
2022/01/22 03:40:22;;;;;;;12.02;4.20;;;8.30;81.80;;;;;;5093260;28;20445;-63
2022/01/22 03:42:49;;;;;;;11.48;4.45;;;8.30;81.80;;;;;;5093028;28;20028;-63
2022/01/22 03:45:16;;;;;;;10.23;4.30;;;8.20;81.80;;;;;;5093030;28;20020;-63
2022/01/22 03:47:42;;;;;;;11.48;4.65;;;8.30;81.90;;;;;;5109747;28;20089;-62
2022/01/22 03:50:10;;;;;;;13.45;4.55;;;8.30;81.80;;;;;;5093682;28;20421;-62
2022/01/22 03:52:35;;;;;;;10.57;4.70;;;8.30;81.80;;;;;;5094022;28;20032;-63
2022/01/22 03:55:03;;;;;;;13.60;4.38;;;8.30;81.80;;;;;;5093391;28;20024;-63
2022/01/22 03:57:49;;;;;;;10.13;3.83;;;8.30;81.90;;;;;;5073474;28;22204;-63
2022/01/22 04:00:15;;;;;;;11.02;4.65;;;8.30;81.90;;;;;;5092486;28;20103;-62
2022/01/22 04:05:37;;;;;;;15.55;4.85;;;8.30;81.80;;;;;;5093153;28;20032;-63
2022/01/22 04:08:14;;;;;;;14.13;4.30;;;8.30;81.80;;;;;;5076183;28;20524;-63
2022/01/22 04:10:40;;;;;;;10.65;4.00;;;8.30;81.90;;;;;;5092653;28;20119;-63
2022/01/22 04:13:10;;;;;;;12.60;4.05;;;8.30;81.90;;;;;;5093975;28;20508;-62
2022/01/22 04:15:39;;;;;;;12.02;4.45;;;8.30;81.90;;;;;;5094604;28;20039;-63
2022/01/22 04:27:09;;;;;;;10.87;4.13;;;8.30;82.00;;;;;;5096105;28;20051;-62
2022/01/22 04:29:08;;;;;;;14.88;4.35;;;8.30;82.00;;;;;;5090427;28;20036;-62
2022/01/22 04:31:34;;;;;;;10.60;4.05;;;8.30;82.10;;;;;;5096173;28;20032;-62
2022/01/22 04:34:00;;;;;;;11.30;4.22;;;8.30;82.10;;;;;;5096590;28;20035;-62
2022/01/22 04:36:25;;;;;;;12.13;4.78;;;8.30;82.10;;;;;;5097186;28;20028;-63
2022/01/22 04:38:51;;;;;;;9.73;3.80;;;8.30;82.10;;;;;;5096606;28;20024;-62
2022/01/22 04:41:17;;;;;;;10.80;4.25;;;8.30;82.10;;;;;;5094068;28;20033;-62
2022/01/22 04:43:44;;;;;;;13.67;3.93;;;8.30;82.10;;;;;;5077893;28;20024;-63
2022/01/22 04:46:19;;;;;;;9.88;3.85;;;8.30;82.10;;;;;;5096132;28;20035;-63
2022/01/22 04:49:06;;;;;;;10.88;4.55;;;8.40;82.20;;;;;;5097157;28;20059;-63
2022/01/22 04:57:00;;;;;;;10.32;3.97;;;8.40;82.30;;;;;;5095848;28;20032;-63
2022/01/22 04:59:26;;;;;;;10.18;3.75;;;8.30;82.20;;;;;;5095338;28;20036;-63
2022/01/22 05:01:51;;;;;;;8.45;3.47;;;8.30;82.20;;;;;;5097076;28;20046;-63
2022/01/22 05:04:36;;;;;;;10.07;3.40;;;8.30;82.30;;;;;;5096336;28;20123;-63
2022/01/22 05:07:15;;;;;;;8.13;3.05;;;8.30;82.30;;;;;;5081171;28;20028;-63
2022/01/22 05:10:05;;;;;;;7.55;2.97;;;8.30;82.30;;;;;;5054718;28;20106;-63
2022/01/22 05:12:33;;;;;;;12.50;3.28;;;8.30;82.40;;;;;;5038318;28;20381;-63
2022/01/22 05:14:59;;;;;;;9.43;3.50;;;8.30;82.30;;;;;;5054186;28;20035;-63
2022/01/22 05:17:24;;;;;;;10.10;3.37;;;8.30;82.30;;;;;;5054777;28;20025;-63
2022/01/22 05:20:04;;;;;;;9.48;3.45;;;8.30;82.30;;;;;;5037138;28;20071;-63
2022/01/22 05:22:53;;;;;;;7.97;2.67;;;8.30;82.40;;;;;;5054137;28;20052;-62
2022/01/22 05:25:23;;;;;;;9.93;3.33;;;8.40;82.40;;;;;;5037751;28;20021;-62
2022/01/22 05:28:02;;;;;;;9.85;3.28;;;8.30;82.40;;;;;;5053187;28;20057;-63
2022/01/22 05:39:11;;;;;;;5.82;2.35;;;8.40;82.40;;;;;;5037745;28;20032;-63
2022/01/22 05:41:39;;;;;;;12.82;2.67;;;8.40;82.40;;;;;;5053695;28;20074;-63
2022/01/22 05:44:05;;;;;;;7.72;2.40;;;8.40;82.40;;;;;;5054423;28;20120;-63
2022/01/22 05:46:30;;;;;;;7.80;2.80;;;8.40;82.40;;;;;;5060190;28;20096;-63
2022/01/22 05:48:56;;;;;;;11.13;2.55;;;8.40;82.40;;;;;;5091613;28;20060;-63
2022/01/22 05:51:22;;;;;;;7.50;2.20;;;8.40;82.40;;;;;;5091960;28;20032;-63
2022/01/22 05:54:17;;;;;;;9.32;2.60;;;8.40;82.40;;;;;;5094730;28;20039;-63
2022/01/22 05:59:39;;;;;;;9.52;2.85;;;8.40;82.40;;;;;;5094710;28;20028;-62
2022/01/22 06:02:09;;;;;;;8.27;2.58;;;8.40;82.40;;;;;;5097737;28;20032;-62
2022/01/22 06:04:35;;;;;;;9.65;2.55;;;8.40;82.40;;;;;;5094771;28;20020;-63
2022/01/22 06:07:06;;;;;;;10.75;2.63;;;8.40;82.40;;;;;;5094282;28;20035;-62
2022/01/22 06:09:33;;;;;;;5.20;2.35;;;8.40;82.40;;;;;;5092847;28;20092;-63
2022/01/22 06:12:16;;;;;;;6.43;2.10;;;8.40;82.40;;;;;;5110146;28;20063;-63
2022/01/22 06:14:47;;;;;;;10.23;2.90;;;8.40;82.40;;;;;;5094947;28;20032;-62
2022/01/22 06:17:12;;;;;;;9.77;3.63;;;8.50;82.50;;;;;;5094610;28;20028;-62
2022/01/22 06:19:45;;;;;;;8.55;2.88;;;8.40;82.40;;;;;;5094453;28;20039;-63
2022/01/22 06:22:11;;;;;;;8.70;2.70;;;8.40;82.50;;;;;;5094224;28;20064;-63
2022/01/22 06:24:37;;;;;;;8.73;2.40;;;8.50;82.50;;;;;;5095502;28;20067;-62
2022/01/22 06:27:07;;;;;;;8.73;2.87;;;8.50;82.60;;;;;;5093544;28;20016;-62
2022/01/22 06:29:33;;;;;;;8.10;2.65;;;8.50;82.60;;;;;;5093859;28;20035;-63
2022/01/22 06:31:59;;;;;;;7.90;2.90;;;8.50;82.60;;;;;;5094317;28;20039;-62
2022/01/22 06:34:27;;;;;;;10.70;3.57;;;8.50;82.60;;;;;;5094059;28;20361;-62
2022/01/22 06:36:53;;;;;;;11.43;3.33;;;8.50;82.70;;;;;;5093661;28;20021;-63
2022/01/22 06:39:21;;;;;;;9.77;2.95;;;8.50;82.70;;;;;;5093628;28;20093;-63
2022/01/22 06:42:05;;;;;;;7.38;2.38;;;8.50;82.70;;;;;;5094729;28;20047;-63
2022/01/22 06:44:39;;;;;;;10.38;3.45;;;8.50;82.70;;;;;;5094676;28;20032;-63
2022/01/22 06:47:34;;;;;;;6.57;2.47;;;8.50;82.80;;;;;;5090767;28;20036;-63
2022/01/22 06:50:11;;;;;;;11.50;3.88;;;8.50;82.80;;;;;;5078210;28;20024;-63
2022/01/22 06:52:57;;;;;;;9.90;3.78;;;8.50;82.90;;;;;;5092562;28;20043;-64
2022/01/22 06:55:40;;;;;;;10.07;3.80;;;8.50;82.90;;;;;;5093942;28;20028;-64
2022/01/22 06:58:06;;;;;;;8.38;3.45;;;8.50;83.00;;;;;;5093248;28;20036;-63
2022/01/22 07:00:33;;;;;;;10.73;3.75;;;8.50;83.00;;;;;;5093348;28;20074;-63
2022/01/22 07:03:09;;;;;;;7.88;3.40;;;8.50;83.00;;;;;;5093323;28;20020;-64
2022/01/22 07:05:35;;;;;;;7.93;3.70;;;8.50;83.10;;;;;;5076844;28;20471;-63
2022/01/22 07:08:05;;;;;;;8.73;3.58;;;8.50;83.10;;;;;;5094293;28;20023;-63
2022/01/22 07:10:34;;;;;;;9.13;3.95;;;8.50;83.10;;;;;;5093291;28;20132;-63
2022/01/22 07:13:00;;;;;;;9.10;4.10;;;8.50;83.20;;;;;;5093573;28;20074;-63
2022/01/22 07:15:26;;;;;;;10.20;3.53;;;8.50;83.20;;;;;;5093682;28;20032;-63
2022/01/22 07:17:56;;;;;;;10.35;4.35;;;8.50;83.20;;;;;;5092708;28;20028;-63
2022/01/22 07:20:29;;;;;;;10.02;4.45;;;8.50;83.30;;;;;;5092981;28;20043;-63
2022/01/22 07:23:12;;;;;;;10.05;4.20;;;8.50;83.20;;;;;;5093040;28;20448;-63
2022/01/22 07:25:52;;;;;;;6.57;3.10;;;8.50;83.20;;;;;;5107923;28;20027;-63
2022/01/22 07:28:39;;;;;;;8.38;3.40;;;8.60;83.30;;;;;;5091993;28;20421;-63
2022/01/22 07:31:05;;;;;;;7.10;3.10;;;8.50;83.30;;;;;;5088955;28;20044;-63
2022/01/22 07:33:34;;;;;;;7.13;3.05;;;8.50;83.30;;;;;;5089260;28;20353;-63
2022/01/22 07:36:01;;;;;;;9.07;4.55;;;8.60;83.40;;;;;;5091283;28;20528;-64
2022/01/22 07:38:26;;;;;;;7.40;3.15;;;8.60;84.00;;;;;;5089049;28;20031;-64
2022/01/22 07:40:52;;;;;;;7.50;3.10;;;8.60;83.30;;;;;;5092035;28;20106;-64
2022/01/22 07:43:25;;;;;;;7.72;3.08;;;8.60;83.30;;;;;;5091315;28;20021;-64
2022/01/22 07:46:09;;;;;;;7.43;2.92;;;8.60;83.30;;;;;;5091695;28;20042;-64
2022/01/22 07:48:46;;;;;;;6.38;2.80;;;8.60;83.20;;;;;;5086648;28;20016;-64
2022/01/22 07:51:24;;;;;;;7.25;2.72;;;8.60;83.20;;;;;;5094306;28;20040;-63
2022/01/22 07:53:50;;;;;;;10.52;2.80;;;8.60;83.20;;;;;;5091853;28;20031;-64
2022/01/22 07:56:19;;;;;;;8.82;2.83;;;8.70;83.30;;;;;;5096442;28;20043;-63
2022/01/22 07:58:45;;;;;;;6.60;2.45;;;8.70;83.30;;;;;;5077989;28;20124;-63
2022/01/22 08:01:12;;;;;;;7.78;2.22;;;8.70;83.30;;;;;;5094519;28;20376;-63
2022/01/22 08:04:04;;;;;;;6.55;2.30;;;8.70;83.30;;;;;;5093486;28;20036;-63
2022/01/22 08:06:48;;;;;;;6.38;1.88;;;8.70;83.20;;;;;;5097003;28;20023;-63
2022/01/22 08:09:29;;;;;;;5.97;2.75;;;8.70;83.20;;;;;;5094145;28;20024;-63
2022/01/22 08:12:03;;;;;;;8.20;2.85;;;8.70;83.10;;;;;;5095338;28;20028;-63
2022/01/22 08:14:29;;;;;;;11.38;3.08;;;8.80;83.20;;;;;;5109910;28;20032;-63
2022/01/22 08:16:56;;;;;;;6.80;2.50;;;8.70;83.20;;;;;;5091949;28;20020;-64
2022/01/22 08:19:27;;;;;;;9.85;2.97;;;8.80;83.20;;;;;;5075272;28;20096;-63
2022/01/22 08:21:53;;;;;;;7.75;2.63;;;8.80;83.20;;;;;;5093055;28;20469;-63
2022/01/22 08:24:37;;;;;;;9.55;2.47;;;8.80;83.10;;;;;;5097287;28;20467;-63
2022/01/22 08:27:33;;;;;;;10.05;2.70;;;8.80;83.10;;;;;;5095817;28;20357;-64
2022/01/22 08:29:59;;;;;;;;;;;8.80;83.10;;;;;;5096827;28;20047;-64
2022/01/22 08:37:51;;;;;;;7.40;2.88;;;8.80;83.10;;;;;;5095730;28;20040;-64
2022/01/22 08:40:17;;;;;;;8.55;2.63;;;8.80;83.10;;;;;;5096028;28;20169;-64
2022/01/22 08:42:45;;;;;;;12.20;2.92;;;8.80;83.10;;;;;;5096389;28;20024;-63
2022/01/22 08:45:11;;;;;;;8.32;2.70;;;8.80;83.10;;;;;;5096101;28;20489;-63
2022/01/22 08:47:39;;;;;;;8.57;2.70;;;8.80;83.10;;;;;;5095402;28;20085;-64
2022/01/22 08:50:05;;;;;;;8.82;3.22;;;8.80;83.10;;;;;;5095493;28;20081;-63
2022/01/22 08:52:35;;;;;;;7.20;3.22;;;8.90;83.10;;;;;;5095076;28;20024;-63
2022/01/22 08:55:05;;;;;;;10.07;3.13;;;8.80;83.00;;;;;;5111252;27;20092;-64
2022/01/22 08:57:30;;;;;;;8.80;2.63;;;8.90;83.10;;;;;;5095868;28;20062;-64
2022/01/22 09:00:01;;;;;;;11.73;3.47;;;8.90;83.00;;;;;;5094590;28;20024;-64
2022/01/22 09:02:27;;;;;;;8.77;3.05;;;8.90;83.00;;;;;;5094400;28;20107;-64
2022/01/22 09:05:16;;;;;;;11.63;3.13;;;8.90;83.00;;;;;;5096221;28;20046;-63
2022/01/22 09:07:59;;;;;;;7.47;2.80;;;8.90;83.00;;;;;;5095616;28;20024;-63
2022/01/22 09:10:31;;;;;;;8.98;3.35;;;8.90;83.60;;;;;;5095177;28;20028;-63
2022/01/22 09:13:06;;;;;;;7.53;2.97;;;8.90;82.90;;;;;;5089670;28;20298;-63
2022/01/22 09:15:41;;;;;;;8.65;3.53;;;8.90;82.90;;;;;;5093241;28;20124;-63
2022/01/22 09:18:08;;;;;;;10.10;3.10;;;8.90;82.90;;;;;;5095027;28;20456;-63
2022/01/22 09:23:04;;;;;;;11.38;2.95;;;8.90;82.80;;;;;;5095061;28;20042;-63
2022/01/22 09:25:29;;;;;;;8.82;2.97;;;8.90;82.80;;;;;;5095013;28;20070;-64
2022/01/22 09:27:55;;;;;;;8.88;2.72;;;8.90;82.70;;;;;;5095490;28;20495;-63
2022/01/22 09:30:21;;;;;;;7.57;2.88;;;8.90;82.60;;;;;;5093986;28;20051;-62
2022/01/22 09:32:47;;;;;;;7.88;2.90;;;8.90;82.60;;;;;;5094390;28;20028;-64
2022/01/22 09:35:31;;;;;;;10.18;3.15;;;9.00;82.60;;;;;;5093199;28;20413;-63
2022/01/22 09:38:07;;;;;;;9.90;2.80;;;9.00;82.60;;;;;;5094530;28;20115;-63
2022/01/22 09:40:41;;;;;;;8.23;2.50;;;9.00;82.60;;;;;;5095853;28;20410;-63
2022/01/22 09:43:35;;;;;;;7.38;3.00;;;9.00;82.50;;;;;;5085828;28;20054;-63
2022/01/22 09:46:19;;;;;;;7.53;2.67;;;9.00;82.50;;;;;;5094902;28;20498;-64
2022/01/22 09:48:53;;;;;;;7.57;2.97;;;9.00;82.40;;;;;;5094939;28;20024;-63
2022/01/22 09:51:38;;;;;;;7.25;2.33;;;9.00;82.40;;;;;;5095324;28;20128;-63
2022/01/22 09:54:22;;;;;;;8.20;3.13;;;9.00;82.40;;;;;;5092810;28;20039;-63
2022/01/22 09:57:12;;;;;;;6.18;2.58;;;9.00;82.40;;;;;;5053296;28;20099;-63
2022/01/22 09:59:56;;;;;;;9.02;2.80;;;9.00;82.40;;;;;;5053121;28;20090;-63
2022/01/22 10:02:45;;;;;;;7.35;2.40;;;9.00;82.40;;;;;;5052494;28;20041;-63
2022/01/22 10:05:29;;;;;;;4.78;2.33;;;9.10;82.40;;;;;;5036185;28;20082;-63
2022/01/22 10:08:24;;;;;;;;;;;9.10;82.30;;;;;;5053286;28;20457;-63
2022/01/22 10:11:17;;;;;;;7.95;2.72;;;9.10;82.30;;;;;;5053080;28;19961;-62
2022/01/22 10:14:03;;;;;;;6.95;2.80;;;9.00;82.20;;;;;;5051303;28;20052;-63
2022/01/22 10:16:34;;;;;;;6.80;2.30;;;9.00;82.20;;;;;;5041207;28;20029;-63
2022/01/22 10:19:11;;;;;;;12.82;2.90;;;9.10;82.20;;;;;;5052228;28;20068;-63
2022/01/22 10:21:38;;;;;;;8.80;2.70;;;9.10;82.20;;;;;;5052465;28;20051;-63
2022/01/22 10:24:23;;;;;;;8.55;2.47;;;9.10;82.10;;;;;;5048038;28;20061;-63
2022/01/22 10:27:11;;;;;;;8.15;2.63;;;9.10;82.00;;;;;;5048297;28;20534;-63
2022/01/22 10:29:46;;;;;;;9.60;3.22;;;9.10;82.00;;;;;;5052441;28;20444;-63
2022/01/22 10:32:17;;;;;;;10.73;2.80;;;9.10;82.00;;;;;;5052008;28;20365;-63
2022/01/22 10:35:04;;;;;;;7.05;2.63;;;9.10;82.00;;;;;;5087562;28;20185;-63
2022/01/22 10:38:00;;;;;;;8.80;3.00;;;9.10;82.00;;;;;;5091380;28;20067;-65
2022/01/22 10:40:28;;;;;;;5.68;2.15;;;9.10;82.00;;;;;;5091005;28;20111;-63
2022/01/22 10:43:16;;;;;;;7.07;3.05;;;9.10;82.00;;;;;;5092984;28;20357;-63
2022/01/22 10:45:56;;;;;;;9.48;2.90;;;9.20;81.90;;;;;;5092358;28;20038;-62
2022/01/22 10:48:21;;;;;;;6.65;2.70;;;9.20;81.80;;;;;;5087134;28;20468;-63
2022/01/22 10:51:00;;;;;;;8.88;2.90;;;9.20;81.80;;;;;;5093812;28;20162;-63
2022/01/22 10:53:45;;;;;;;10.98;3.10;;;9.20;81.70;;;;;;5091418;28;20111;-63
2022/01/22 10:56:17;;;;;;;8.82;2.55;;;9.20;81.60;;;;;;5092085;28;20043;-62
2022/01/22 10:59:06;;;;;;;9.70;3.55;;;9.20;81.60;;;;;;5091417;28;20031;-62
2022/01/22 11:01:52;;;;;;;8.15;3.08;;;9.20;81.60;;;;;;5092548;28;20039;-63
2022/01/22 11:04:26;;;;;;;6.15;2.83;;;9.20;81.50;;;;;;5091679;28;20028;-62
2022/01/22 11:06:52;;;;;;;8.43;2.50;;;9.20;81.60;;;;;;5093357;28;20043;-63
2022/01/22 11:09:18;;;;;;;7.35;2.67;;;9.30;81.60;;;;;;5093135;28;20020;-63
2022/01/22 11:11:43;;;;;;;8.88;2.70;;;9.30;81.50;;;;;;5093498;28;20035;-62
2022/01/22 11:14:10;;;;;;;11.55;3.30;;;9.30;81.40;;;;;;5093792;28;20039;-63
2022/01/22 11:16:41;;;;;;;8.30;2.70;;;9.30;81.20;;;;;;5090019;28;20043;-62
2022/01/22 11:19:15;;;;;;;6.25;2.50;;;9.30;81.10;;;;;;5089309;28;20119;-62
2022/01/22 11:21:46;;;;;;;7.72;2.83;;;9.40;81.20;;;;;;5094201;28;20032;-63
2022/01/22 11:24:13;;;;;;;7.73;2.40;;;9.40;81.10;;;;;;5090978;28;20368;-63
2022/01/22 11:26:39;;;;;;;9.63;2.92;;;9.40;81.00;;;;;;5098318;28;20285;-62
2022/01/22 11:29:06;;;;;;;7.63;2.85;;;9.40;81.00;;;;;;5093623;28;20124;-63
2022/01/22 11:31:33;;;;;;;8.48;2.53;;;9.40;81.10;;;;;;5095825;28;20047;-63
2022/01/22 11:34:01;;;;;;;7.88;3.22;;;9.40;80.80;;;;;;5095306;28;20051;-63
2022/01/22 11:36:36;;;;;;;6.95;2.55;;;9.40;80.80;;;;;;5094485;28;20040;-63
2022/01/22 11:39:03;;;;;;;7.78;3.10;;;9.40;80.70;;;;;;5100140;28;20038;-62
2022/01/22 11:41:29;;;;;;;7.35;2.90;;;9.40;80.70;;;;;;5097692;28;20039;-62
2022/01/22 11:44:25;;;;;;;5.78;2.35;;;9.40;81.40;;;;;;5097162;28;20024;-62
2022/01/22 11:47:05;;;;;;;7.68;3.05;;;9.40;80.70;;;;;;5096776;28;20054;-62
2022/01/22 11:49:31;;;;;;;7.32;3.58;;;9.40;80.70;;;;;;5094582;28;20524;-63
2022/01/22 11:52:12;;;;;;;7.22;3.15;;;9.40;80.70;;;;;;5097686;28;20107;-62
2022/01/22 11:54:56;;;;;;;10.93;3.78;;;9.40;80.70;;;;;;5097086;28;20483;-63
2022/01/22 11:57:23;;;;;;;12.00;3.38;;;9.40;80.70;;;;;;5081499;28;20169;-63
2022/01/22 12:00:21;;;;;;;11.07;3.65;;;9.40;80.70;;;;;;5096652;28;20040;-62
2022/01/22 12:03:12;;;;;;;11.05;3.83;;;9.40;80.50;;;;;;5098299;28;20063;-63
2022/01/22 12:05:53;;;;;;;9.18;3.20;;;9.40;80.40;;;;;;5097193;28;20017;-63
2022/01/22 12:08:20;;;;;;;7.57;2.97;;;9.40;80.40;;;;;;5096382;28;20219;-63
2022/01/22 12:16:16;;;;;;;7.05;2.92;;;9.50;80.30;;;;;;5092502;28;19957;-64
2022/01/22 12:18:50;;;;;;;7.68;3.28;;;9.40;80.20;;;;;;5095086;28;20082;-64
2022/01/22 12:21:36;;;;;;;6.82;3.15;;;9.50;80.10;;;;;;5097960;28;20040;-62
2022/01/22 12:24:08;;;;;;;7.13;2.90;;;9.50;80.00;;;;;;5097949;28;20040;-62
2022/01/22 12:26:48;;;;;;;7.63;3.25;;;9.50;79.90;;;;;;5096335;28;20033;-61
2022/01/22 12:29:29;;;;;;;8.15;3.22;;;9.50;79.90;;;;;;5097367;28;20051;-61
2022/01/22 12:32:19;;;;;;;9.90;3.53;;;9.50;79.70;;;;;;5097540;28;20043;-61
2022/01/22 12:34:57;;;;;;;7.82;3.40;;;9.50;80.00;;;;;;5097609;28;20100;-61
2022/01/22 12:37:23;;;;;;;6.20;3.05;;;9.60;79.80;;;;;;5076953;28;20048;-61
2022/01/22 12:39:52;;;;;;;7.97;3.70;;;9.60;79.70;;;;;;5095384;28;20039;-61
2022/01/22 12:42:27;;;;;;;10.20;3.60;;;9.60;79.60;;;;;;5091441;28;20346;-62
2022/01/22 12:45:02;;;;;;;8.82;3.85;;;9.60;79.50;;;;;;5098053;28;20114;-61
2022/01/22 12:47:28;;;;;;;6.47;3.05;;;9.60;79.40;;;;;;5077220;28;20086;-61
2022/01/22 12:50:08;;;;;;;9.80;3.40;;;9.70;79.50;;;;;;5093427;28;20028;-61
2022/01/22 12:52:35;;;;;;;10.82;3.20;;;9.70;79.40;;;;;;5092070;28;20040;-61
2022/01/22 12:55:16;;;;;;;8.70;3.55;;;9.70;79.40;;;;;;5096827;28;20038;-62
2022/01/22 12:57:43;;;;;;;11.30;3.70;;;9.70;79.30;;;;;;5093921;28;20452;-61
2022/01/22 13:00:13;;;;;;;7.65;3.20;;;9.70;79.30;;;;;;5094103;28;20039;-62
2022/01/22 13:02:43;;;;;;;9.35;3.72;;;9.70;79.20;;;;;;5095709;28;20060;-61
2022/01/22 13:05:11;;;;;;;7.05;3.35;;;9.70;79.10;;;;;;5095246;28;20420;-61
2022/01/22 13:07:57;;;;;;;9.48;2.85;;;9.70;79.00;;;;;;5093536;28;20028;-61
2022/01/22 13:10:57;;;;;;;6.53;2.88;;;9.70;79.00;;;;;;5091242;28;20097;-61
2022/01/22 13:13:23;;;;;;;9.10;3.45;;;9.70;79.00;;;;;;5091233;28;20024;-61
2022/01/22 13:16:03;;;;;;;9.13;3.42;;;9.70;78.90;;;;;;5094054;28;20036;-61
2022/01/22 13:18:48;;;;;;;9.03;3.37;;;9.70;78.70;;;;;;5095156;28;20101;-61
2022/01/22 13:21:16;;;;;;;7.55;3.50;;;9.70;78.70;;;;;;5091713;28;20381;-61
2022/01/22 13:23:42;;;;;;;7.18;2.95;;;9.70;78.70;;;;;;5090097;28;20035;-61
2022/01/22 13:26:09;;;;;;;10.65;3.70;;;9.70;78.70;;;;;;5092888;28;20055;-61
2022/01/22 13:28:37;;;;;;;9.77;3.70;;;9.70;78.60;;;;;;5093849;28;20058;-61
2022/01/22 13:31:13;;;;;;;10.45;3.60;;;9.70;78.50;;;;;;5094448;28;20109;-61
2022/01/22 13:33:48;;;;;;;9.00;3.30;;;9.70;78.40;;;;;;5091103;28;20043;-61
2022/01/22 13:39:01;;;;;;;9.45;4.28;;;9.70;78.40;;;;;;5093995;28;20028;-62
2022/01/22 13:49:48;;;;;;;9.82;5.55;;;9.60;78.40;;;;;;5093583;28;20154;-62
2022/01/22 13:52:17;;;;;;;10.60;5.43;;;9.70;78.50;;;;;;5093928;28;20352;-62
2022/01/22 13:54:46;;;;;;;9.73;5.53;;;9.70;78.50;;;;;;5094425;28;20361;-63
2022/01/22 13:57:16;;;;;;;15.85;6.97;;;9.70;78.50;;;;;;5095686;28;20032;-63
2022/01/22 13:59:52;;;;;;;12.60;6.47;;;9.70;78.50;;;;;;5094601;28;20044;-63
2022/01/22 14:02:52;;;;;;;13.40;6.25;;;9.70;78.50;;;;;;5093285;28;20035;-63
2022/01/22 14:05:18;;;;;;;13.90;7.10;;;9.70;78.50;;;;;;5094948;28;20027;-63
2022/01/22 14:07:49;;;;;;;10.43;6.25;;;9.70;78.60;;;;;;5095290;28;20027;-63
2022/01/22 14:10:19;;;;;;;13.73;6.53;;;9.70;78.60;;;;;;5094203;28;20391;-63
2022/01/22 14:12:48;;;;;;;14.07;7.67;;;9.70;78.70;;;;;;5094900;28;20024;-63
2022/01/22 14:15:23;;;;;;;12.82;6.85;;;9.70;78.70;;;;;;5094468;28;20032;-63
2022/01/22 14:18:17;;;;;;;11.05;6.55;;;9.70;78.80;;;;;;5094584;28;20487;-63
2022/01/22 14:20:48;;;;;;;12.95;6.82;;;9.70;78.80;;;;;;5093292;28;20032;-63
2022/01/22 14:23:22;;;;;;;12.10;7.35;;;9.70;78.80;;;;;;5094826;28;20043;-63
2022/01/22 14:25:58;;;;;;;11.57;6.65;;;9.70;78.80;;;;;;5094586;28;20062;-63
2022/01/22 14:28:44;;;;;;;14.48;7.55;;;9.70;78.80;;;;;;5094405;28;20035;-64
2022/01/22 14:31:47;;;;;;;12.32;6.60;;;9.70;78.90;;;;;;5092276;28;20056;-63
2022/01/22 14:34:29;;;;;;;11.77;6.40;;;9.70;78.90;;;;;;5079273;28;20040;-62
2022/01/22 14:36:55;;;;;;;12.80;6.28;;;9.70;79.00;;;;;;5093938;28;20056;-62
2022/01/22 14:44:37;;;;;;;12.00;6.07;;;9.70;79.10;;;;;;5091398;28;20028;-62
2022/01/22 14:47:11;;;;;;;14.73;6.10;;;9.60;79.10;;;;;;5091942;28;20118;-62
2022/01/22 14:50:00;;;;;;;10.95;6.32;;;9.60;79.20;;;;;;5088525;28;20028;-63
2022/01/22 14:52:26;;;;;;;11.52;5.43;;;9.70;79.20;;;;;;5085899;28;20047;-62
2022/01/22 14:54:55;;;;;;;12.20;5.53;;;9.60;79.20;;;;;;5092713;28;20111;-63
2022/01/22 14:57:26;;;;;;;11.43;6.05;;;9.60;79.20;;;;;;5093570;28;20403;-63
2022/01/22 14:59:51;;;;;;;12.20;6.25;;;9.70;79.20;;;;;;5093378;28;20035;-63
2022/01/22 15:02:17;;;;;;;11.93;6.05;;;9.60;79.20;;;;;;5093133;28;20020;-63
2022/01/22 15:04:43;;;;;;;9.48;5.22;;;9.60;79.20;;;;;;5089276;28;20028;-64
2022/01/22 15:07:15;;;;;;;11.27;5.28;;;9.60;79.20;;;;;;5093604;28;20054;-63
2022/01/22 15:09:44;;;;;;;9.10;5.00;;;9.70;79.30;;;;;;5092911;28;20453;-63
2022/01/22 15:12:11;;;;;;;10.27;5.00;;;9.60;79.30;;;;;;5093177;28;20463;-62